CheckWX is a tool to help pilots better visualize weather data.  It is not intended as a substitute for an official pre-flight weather briefing.

07:43:44 UTC

DNYO TAF
Yola Airport
Yola, Nigeria
TAF DNYO 200330Z 2006/2112 22010KT CAVOK TEMPO 2010/2014 BKN013 TEMPO 2014/2019 07015G35KT 3000 TSRA BKN011 FEW018CB

Jun-20@
06:00 UTC

Jun-20 @ 06:00 UTC

Jun-21@
12:00 UTC

Jun-21 @ 12:00 UTC

TAF DNYO 200330Z 2006/2112 22010KT CAVOK
Wind
  • 220° at 10 KTS
Conditions
No significant weather
Cloud Levels
  • No significant clouds

Jun-20@
10:00 UTC

Jun-20 @ 10:00 UTC

Jun-20@
14:00 UTC

Jun-20 @ 14:00 UTC

TEMPO 2010/2014 BKN013

Temporary

Temporary Changes expected for less than half the time period

Cloud Levels
  • Broken at 1,300' AGL

Jun-20@
14:00 UTC

Jun-20 @ 14:00 UTC

Jun-20@
19:00 UTC

Jun-20 @ 19:00 UTC

TEMPO 2014/2019 07015G35KT 3000 TSRA BKN011 FEW018CB

Temporary

Temporary Changes expected for less than half the time period

Wind
  • 070° at 15 KTS
  • {Gusting to 35 KTS
Conditions
Thunderstorm, Rain
Cloud Levels
  • Broken at 1,100' AGL
  • Few at 1,800' AGL